sensor_id;sensor_type;location;lat;lon;timestamp;P1;durP1;ratioP1;P2;durP2;ratioP2
15383;SDS011;7790;53.022;12.968;2022-07-11T00:00:42;3.13;;;1.10;;
15383;SDS011;7790;53.022;12.968;2022-07-11T00:04:43;4.50;;;1.40;;
15383;SDS011;7790;53.022;12.968;2022-07-11T00:08:45;2.43;;;1.20;;
15383;SDS011;7790;53.022;12.968;2022-07-11T00:12:45;3.43;;;1.30;;
15383;SDS011;7790;53.022;12.968;2022-07-11T00:16:47;2.13;;;1.20;;
15383;SDS011;7790;53.022;12.968;2022-07-11T00:20:48;2.20;;;1.10;;
15383;SDS011;7790;53.022;12.968;2022-07-11T00:24:49;1.77;;;1.00;;
15383;SDS011;7790;53.022;12.968;2022-07-11T00:28:49;2.10;;;1.20;;
15383;SDS011;7790;53.022;12.968;2022-07-11T00:32:50;2.93;;;1.43;;
15383;SDS011;7790;53.022;12.968;2022-07-11T00:36:51;2.97;;;1.30;;
15383;SDS011;7790;53.022;12.968;2022-07-11T00:40:52;3.50;;;1.17;;
15383;SDS011;7790;53.022;12.968;2022-07-11T00:44:53;1.80;;;1.03;;
15383;SDS011;7790;53.022;12.968;2022-07-11T00:48:54;2.83;;;1.20;;
15383;SDS011;7790;53.022;12.968;2022-07-11T00:52:55;1.67;;;1.10;;
15383;SDS011;7790;53.022;12.968;2022-07-11T00:56:57;3.47;;;1.10;;
15383;SDS011;7790;53.022;12.968;2022-07-11T01:00:58;2.67;;;1.30;;
15383;SDS011;7790;53.022;12.968;2022-07-11T01:05:00;2.30;;;1.23;;
15383;SDS011;7790;53.022;12.968;2022-07-11T01:09:01;3.63;;;1.10;;
15383;SDS011;7790;53.022;12.968;2022-07-11T01:13:01;3.13;;;1.07;;
15383;SDS011;7790;53.022;12.968;2022-07-11T01:17:03;3.00;;;1.17;;
15383;SDS011;7790;53.022;12.968;2022-07-11T01:21:05;1.70;;;0.90;;
15383;SDS011;7790;53.022;12.968;2022-07-11T01:25:19;2.57;;;1.03;;
15383;SDS011;7790;53.022;12.968;2022-07-11T01:29:32;3.60;;;1.30;;
15383;SDS011;7790;53.022;12.968;2022-07-11T01:33:33;1.50;;;1.03;;
15383;SDS011;7790;53.022;12.968;2022-07-11T01:37:33;1.70;;;1.10;;
15383;SDS011;7790;53.022;12.968;2022-07-11T01:41:34;2.63;;;1.20;;
15383;SDS011;7790;53.022;12.968;2022-07-11T01:45:35;2.17;;;1.23;;
15383;SDS011;7790;53.022;12.968;2022-07-11T01:49:36;2.17;;;1.13;;
15383;SDS011;7790;53.022;12.968;2022-07-11T01:53:37;2.03;;;1.03;;
15383;SDS011;7790;53.022;12.968;2022-07-11T01:57:37;2.80;;;1.30;;
15383;SDS011;7790;53.022;12.968;2022-07-11T02:01:38;2.67;;;1.10;;
15383;SDS011;7790;53.022;12.968;2022-07-11T02:05:39;2.57;;;1.13;;
15383;SDS011;7790;53.022;12.968;2022-07-11T02:09:40;2.03;;;1.27;;
15383;SDS011;7790;53.022;12.968;2022-07-11T02:13:41;1.63;;;1.03;;
15383;SDS011;7790;53.022;12.968;2022-07-11T02:17:42;1.20;;;0.83;;
15383;SDS011;7790;53.022;12.968;2022-07-11T02:21:42;3.10;;;1.20;;
15383;SDS011;7790;53.022;12.968;2022-07-11T02:25:43;3.30;;;1.30;;
15383;SDS011;7790;53.022;12.968;2022-07-11T02:29:45;3.27;;;1.03;;
15383;SDS011;7790;53.022;12.968;2022-07-11T02:33:45;2.07;;;1.20;;
15383;SDS011;7790;53.022;12.968;2022-07-11T02:37:46;2.47;;;1.30;;
15383;SDS011;7790;53.022;12.968;2022-07-11T02:41:48;3.20;;;1.40;;
15383;SDS011;7790;53.022;12.968;2022-07-11T02:45:49;2.83;;;1.10;;
15383;SDS011;7790;53.022;12.968;2022-07-11T02:49:50;3.93;;;1.63;;
15383;SDS011;7790;53.022;12.968;2022-07-11T02:53:51;4.00;;;1.50;;
15383;SDS011;7790;53.022;12.968;2022-07-11T02:57:53;3.23;;;1.30;;
15383;SDS011;7790;53.022;12.968;2022-07-11T03:01:53;2.40;;;1.50;;
15383;SDS011;7790;53.022;12.968;2022-07-11T03:05:54;1.60;;;1.00;;
15383;SDS011;7790;53.022;12.968;2022-07-11T03:09:55;2.93;;;1.37;;
15383;SDS011;7790;53.022;12.968;2022-07-11T03:13:57;3.87;;;1.43;;
15383;SDS011;7790;53.022;12.968;2022-07-11T03:17:58;2.70;;;1.23;;
15383;SDS011;7790;53.022;12.968;2022-07-11T03:21:58;2.30;;;1.37;;
15383;SDS011;7790;53.022;12.968;2022-07-11T03:25:59;2.47;;;0.97;;
15383;SDS011;7790;53.022;12.968;2022-07-11T03:30:01;2.93;;;1.10;;
15383;SDS011;7790;53.022;12.968;2022-07-11T03:34:03;5.80;;;1.53;;
15383;SDS011;7790;53.022;12.968;2022-07-11T03:38:04;3.50;;;1.30;;
15383;SDS011;7790;53.022;12.968;2022-07-11T03:42:05;3.07;;;1.23;;
15383;SDS011;7790;53.022;12.968;2022-07-11T03:46:05;2.77;;;1.20;;
15383;SDS011;7790;53.022;12.968;2022-07-11T03:50:06;4.33;;;1.40;;
15383;SDS011;7790;53.022;12.968;2022-07-11T03:54:07;4.53;;;1.33;;
15383;SDS011;7790;53.022;12.968;2022-07-11T03:58:09;2.83;;;1.37;;
15383;SDS011;7790;53.022;12.968;2022-07-11T04:02:10;3.73;;;1.33;;
15383;SDS011;7790;53.022;12.968;2022-07-11T04:06:10;5.03;;;1.57;;
15383;SDS011;7790;53.022;12.968;2022-07-11T04:10:14;2.50;;;1.20;;
15383;SDS011;7790;53.022;12.968;2022-07-11T04:14:18;7.27;;;1.50;;
15383;SDS011;7790;53.022;12.968;2022-07-11T04:18:19;4.47;;;1.53;;
15383;SDS011;7790;53.022;12.968;2022-07-11T04:22:20;3.50;;;1.33;;
15383;SDS011;7790;53.022;12.968;2022-07-11T04:26:21;3.03;;;1.20;;
15383;SDS011;7790;53.022;12.968;2022-07-11T04:30:21;2.00;;;0.93;;
15383;SDS011;7790;53.022;12.968;2022-07-11T04:34:22;3.43;;;1.70;;
15383;SDS011;7790;53.022;12.968;2022-07-11T04:38:23;5.57;;;1.50;;
15383;SDS011;7790;53.022;12.968;2022-07-11T04:42:24;2.73;;;1.60;;
15383;SDS011;7790;53.022;12.968;2022-07-11T04:46:25;5.17;;;1.37;;
15383;SDS011;7790;53.022;12.968;2022-07-11T04:50:26;3.43;;;1.50;;
15383;SDS011;7790;53.022;12.968;2022-07-11T04:54:27;3.27;;;1.30;;
15383;SDS011;7790;53.022;12.968;2022-07-11T04:58:28;4.70;;;1.43;;
15383;SDS011;7790;53.022;12.968;2022-07-11T05:02:33;4.00;;;1.67;;
15383;SDS011;7790;53.022;12.968;2022-07-11T05:06:34;2.30;;;1.20;;
15383;SDS011;7790;53.022;12.968;2022-07-11T05:10:34;2.13;;;1.33;;
15383;SDS011;7790;53.022;12.968;2022-07-11T05:14:36;3.67;;;1.43;;
15383;SDS011;7790;53.022;12.968;2022-07-11T05:18:37;2.80;;;1.50;;
15383;SDS011;7790;53.022;12.968;2022-07-11T05:22:37;4.13;;;1.50;;
15383;SDS011;7790;53.022;12.968;2022-07-11T05:26:38;3.20;;;1.50;;
15383;SDS011;7790;53.022;12.968;2022-07-11T05:30:39;5.43;;;1.50;;
15383;SDS011;7790;53.022;12.968;2022-07-11T05:34:40;2.97;;;1.30;;
15383;SDS011;7790;53.022;12.968;2022-07-11T05:38:41;3.80;;;1.40;;
15383;SDS011;7790;53.022;12.968;2022-07-11T05:42:42;3.60;;;1.40;;
15383;SDS011;7790;53.022;12.968;2022-07-11T05:46:42;3.27;;;1.40;;
15383;SDS011;7790;53.022;12.968;2022-07-11T05:50:43;2.57;;;1.40;;
15383;SDS011;7790;53.022;12.968;2022-07-11T05:54:44;2.77;;;1.40;;
15383;SDS011;7790;53.022;12.968;2022-07-11T05:58:45;3.20;;;1.33;;
15383;SDS011;7790;53.022;12.968;2022-07-11T06:02:46;5.47;;;1.73;;
15383;SDS011;7790;53.022;12.968;2022-07-11T06:06:47;3.97;;;1.23;;
15383;SDS011;7790;53.022;12.968;2022-07-11T06:10:48;2.87;;;1.33;;
15383;SDS011;7790;53.022;12.968;2022-07-11T06:14:49;5.00;;;1.40;;
15383;SDS011;7790;53.022;12.968;2022-07-11T06:18:50;2.87;;;1.30;;
15383;SDS011;7790;53.022;12.968;2022-07-11T06:22:51;5.63;;;1.43;;
15383;SDS011;7790;53.022;12.968;2022-07-11T06:26:53;8.73;;;1.93;;
15383;SDS011;7790;53.022;12.968;2022-07-11T06:30:59;2.77;;;1.50;;
15383;SDS011;7790;53.022;12.968;2022-07-11T06:35:00;4.40;;;1.20;;
15383;SDS011;7790;53.022;12.968;2022-07-11T06:39:01;4.90;;;1.30;;
15383;SDS011;7790;53.022;12.968;2022-07-11T06:43:02;5.67;;;1.40;;
15383;SDS011;7790;53.022;12.968;2022-07-11T06:47:04;2.07;;;1.23;;
15383;SDS011;7790;53.022;12.968;2022-07-11T06:51:06;2.27;;;1.50;;
15383;SDS011;7790;53.022;12.968;2022-07-11T06:55:07;6.60;;;1.27;;
15383;SDS011;7790;53.022;12.968;2022-07-11T06:59:08;4.50;;;1.43;;
15383;SDS011;7790;53.022;12.968;2022-07-11T07:03:08;5.13;;;1.57;;
15383;SDS011;7790;53.022;12.968;2022-07-11T07:07:09;3.10;;;1.10;;
15383;SDS011;7790;53.022;12.968;2022-07-11T07:11:10;3.50;;;1.40;;
15383;SDS011;7790;53.022;12.968;2022-07-11T07:15:11;5.10;;;1.20;;
15383;SDS011;7790;53.022;12.968;2022-07-11T07:19:12;3.63;;;1.20;;
15383;SDS011;7790;53.022;12.968;2022-07-11T07:23:13;4.43;;;1.30;;
15383;SDS011;7790;53.022;12.968;2022-07-11T07:27:14;5.07;;;1.47;;
15383;SDS011;7790;53.022;12.968;2022-07-11T07:31:15;2.87;;;1.00;;
15383;SDS011;7790;53.022;12.968;2022-07-11T07:35:16;3.43;;;1.57;;
15383;SDS011;7790;53.022;12.968;2022-07-11T07:39:17;2.93;;;1.13;;
15383;SDS011;7790;53.022;12.968;2022-07-11T07:43:18;2.33;;;1.10;;
15383;SDS011;7790;53.022;12.968;2022-07-11T07:47:18;4.57;;;1.33;;
15383;SDS011;7790;53.022;12.968;2022-07-11T07:51:20;4.10;;;1.47;;
15383;SDS011;7790;53.022;12.968;2022-07-11T07:55:22;4.60;;;1.70;;
15383;SDS011;7790;53.022;12.968;2022-07-11T07:59:23;2.50;;;1.33;;
15383;SDS011;7790;53.022;12.968;2022-07-11T08:03:25;3.10;;;1.40;;
15383;SDS011;7790;53.022;12.968;2022-07-11T08:07:26;3.90;;;1.27;;
15383;SDS011;7790;53.022;12.968;2022-07-11T08:11:26;2.13;;;1.27;;
15383;SDS011;7790;53.022;12.968;2022-07-11T08:15:28;4.10;;;1.40;;
15383;SDS011;7790;53.022;12.968;2022-07-11T08:19:28;2.87;;;1.50;;
15383;SDS011;7790;53.022;12.968;2022-07-11T08:23:31;3.27;;;1.37;;
15383;SDS011;7790;53.022;12.968;2022-07-11T08:27:31;3.07;;;1.20;;
15383;SDS011;7790;53.022;12.968;2022-07-11T08:31:32;3.03;;;1.23;;
15383;SDS011;7790;53.022;12.968;2022-07-11T08:35:33;3.23;;;1.67;;
15383;SDS011;7790;53.022;12.968;2022-07-11T08:39:34;3.50;;;1.40;;
15383;SDS011;7790;53.022;12.968;2022-07-11T08:43:35;1.93;;;1.10;;
15383;SDS011;7790;53.022;12.968;2022-07-11T08:47:36;1.97;;;1.10;;
15383;SDS011;7790;53.022;12.968;2022-07-11T08:51:37;3.33;;;1.40;;
15383;SDS011;7790;53.022;12.968;2022-07-11T08:55:38;3.47;;;1.27;;
15383;SDS011;7790;53.022;12.968;2022-07-11T08:59:40;3.27;;;1.40;;
15383;SDS011;7790;53.022;12.968;2022-07-11T09:03:43;4.93;;;1.53;;
15383;SDS011;7790;53.022;12.968;2022-07-11T09:07:48;7.87;;;1.50;;
15383;SDS011;7790;53.022;12.968;2022-07-11T09:11:54;3.03;;;1.20;;
15383;SDS011;7790;53.022;12.968;2022-07-11T09:16:07;2.30;;;1.20;;
15383;SDS011;7790;53.022;12.968;2022-07-11T09:20:09;3.77;;;1.10;;
15383;SDS011;7790;53.022;12.968;2022-07-11T09:24:09;6.23;;;1.20;;
15383;SDS011;7790;53.022;12.968;2022-07-11T09:28:29;3.63;;;1.23;;
15383;SDS011;7790;53.022;12.968;2022-07-11T09:32:29;2.97;;;1.10;;
15383;SDS011;7790;53.022;12.968;2022-07-11T09:36:52;6.03;;;1.30;;
15383;SDS011;7790;53.022;12.968;2022-07-11T09:40:55;2.40;;;1.20;;
15383;SDS011;7790;53.022;12.968;2022-07-11T09:44:58;3.87;;;1.20;;
15383;SDS011;7790;53.022;12.968;2022-07-11T09:49:12;2.33;;;1.20;;
15383;SDS011;7790;53.022;12.968;2022-07-11T09:53:14;4.10;;;1.00;;
15383;SDS011;7790;53.022;12.968;2022-07-11T09:57:15;4.47;;;1.13;;
15383;SDS011;7790;53.022;12.968;2022-07-11T10:01:16;5.10;;;1.27;;
15383;SDS011;7790;53.022;12.968;2022-07-11T10:05:17;4.37;;;1.30;;
15383;SDS011;7790;53.022;12.968;2022-07-11T10:09:18;3.27;;;1.17;;
15383;SDS011;7790;53.022;12.968;2022-07-11T10:13:19;3.60;;;1.27;;
15383;SDS011;7790;53.022;12.968;2022-07-11T10:21:41;4.47;;;1.27;;
15383;SDS011;7790;53.022;12.968;2022-07-11T10:26:06;1.53;;;1.00;;
15383;SDS011;7790;53.022;12.968;2022-07-11T10:30:13;2.37;;;1.20;;
15383;SDS011;7790;53.022;12.968;2022-07-11T10:34:34;2.90;;;1.00;;
15383;SDS011;7790;53.022;12.968;2022-07-11T10:38:35;2.83;;;0.80;;
15383;SDS011;7790;53.022;12.968;2022-07-11T10:42:39;4.53;;;1.30;;
15383;SDS011;7790;53.022;12.968;2022-07-11T10:46:41;2.20;;;1.07;;
15383;SDS011;7790;53.022;12.968;2022-07-11T10:50:42;2.47;;;1.00;;
15383;SDS011;7790;53.022;12.968;2022-07-11T10:58:59;3.07;;;0.87;;
15383;SDS011;7790;53.022;12.968;2022-07-11T11:03:12;2.80;;;1.00;;
15383;SDS011;7790;53.022;12.968;2022-07-11T11:11:36;3.07;;;1.20;;
15383;SDS011;7790;53.022;12.968;2022-07-11T11:28:03;3.10;;;1.20;;
15383;SDS011;7790;53.022;12.968;2022-07-11T11:32:04;5.77;;;1.37;;
15383;SDS011;7790;53.022;12.968;2022-07-11T11:36:09;4.87;;;1.30;;
15383;SDS011;7790;53.022;12.968;2022-07-11T11:40:10;4.73;;;1.37;;
15383;SDS011;7790;53.022;12.968;2022-07-11T11:44:12;3.37;;;1.40;;
15383;SDS011;7790;53.022;12.968;2022-07-11T11:48:29;4.60;;;1.20;;
15383;SDS011;7790;53.022;12.968;2022-07-11T11:52:34;5.07;;;1.77;;
15383;SDS011;7790;53.022;12.968;2022-07-11T11:56:36;6.40;;;1.57;;
15383;SDS011;7790;53.022;12.968;2022-07-11T12:00:39;8.93;;;1.80;;
15383;SDS011;7790;53.022;12.968;2022-07-11T12:04:40;4.93;;;1.40;;
15383;SDS011;7790;53.022;12.968;2022-07-11T12:08:41;6.23;;;1.60;;
15383;SDS011;7790;53.022;12.968;2022-07-11T12:12:42;5.33;;;1.47;;
15383;SDS011;7790;53.022;12.968;2022-07-11T12:16:47;2.57;;;1.10;;
15383;SDS011;7790;53.022;12.968;2022-07-11T12:20:48;4.90;;;1.70;;
15383;SDS011;7790;53.022;12.968;2022-07-11T12:24:49;5.63;;;1.50;;
15383;SDS011;7790;53.022;12.968;2022-07-11T12:29:35;7.80;;;1.33;;
15383;SDS011;7790;53.022;12.968;2022-07-11T12:33:19;5.67;;;1.67;;
15383;SDS011;7790;53.022;12.968;2022-07-11T12:37:21;5.60;;;1.00;;
15383;SDS011;7790;53.022;12.968;2022-07-11T12:41:22;2.97;;;1.00;;
15383;SDS011;7790;53.022;12.968;2022-07-11T12:45:23;4.73;;;1.30;;
15383;SDS011;7790;53.022;12.968;2022-07-11T12:49:26;2.23;;;1.00;;
15383;SDS011;7790;53.022;12.968;2022-07-11T12:53:28;3.27;;;1.40;;
15383;SDS011;7790;53.022;12.968;2022-07-11T12:57:29;3.97;;;1.13;;
15383;SDS011;7790;53.022;12.968;2022-07-11T13:01:30;1.93;;;1.10;;
15383;SDS011;7790;53.022;12.968;2022-07-11T13:05:50;3.80;;;1.10;;
15383;SDS011;7790;53.022;12.968;2022-07-11T13:09:51;6.93;;;1.13;;
15383;SDS011;7790;53.022;12.968;2022-07-11T13:13:52;2.33;;;0.90;;
15383;SDS011;7790;53.022;12.968;2022-07-11T13:17:53;2.97;;;1.10;;
15383;SDS011;7790;53.022;12.968;2022-07-11T13:21:55;2.97;;;1.03;;
15383;SDS011;7790;53.022;12.968;2022-07-11T13:25:56;5.13;;;1.13;;
15383;SDS011;7790;53.022;12.968;2022-07-11T13:29:57;1.73;;;0.90;;
15383;SDS011;7790;53.022;12.968;2022-07-11T13:33:58;2.77;;;1.07;;
15383;SDS011;7790;53.022;12.968;2022-07-11T13:37:58;2.83;;;1.00;;
15383;SDS011;7790;53.022;12.968;2022-07-11T13:41:59;2.27;;;1.00;;
15383;SDS011;7790;53.022;12.968;2022-07-11T13:46:00;2.37;;;1.03;;
15383;SDS011;7790;53.022;12.968;2022-07-11T13:50:01;2.83;;;0.90;;
15383;SDS011;7790;53.022;12.968;2022-07-11T13:54:02;2.30;;;0.80;;
15383;SDS011;7790;53.022;12.968;2022-07-11T13:58:03;3.07;;;1.00;;
15383;SDS011;7790;53.022;12.968;2022-07-11T14:02:04;3.33;;;1.07;;
15383;SDS011;7790;53.022;12.968;2022-07-11T14:06:05;5.83;;;1.50;;
15383;SDS011;7790;53.022;12.968;2022-07-11T14:10:06;3.37;;;0.93;;
15383;SDS011;7790;53.022;12.968;2022-07-11T14:14:07;21.27;;;2.50;;
15383;SDS011;7790;53.022;12.968;2022-07-11T14:18:09;7.30;;;1.67;;
15383;SDS011;7790;53.022;12.968;2022-07-11T14:22:09;6.13;;;1.33;;
15383;SDS011;7790;53.022;12.968;2022-07-11T14:26:10;4.93;;;1.30;;
15383;SDS011;7790;53.022;12.968;2022-07-11T14:30:11;3.30;;;1.10;;
15383;SDS011;7790;53.022;12.968;2022-07-11T14:34:12;6.47;;;1.53;;
15383;SDS011;7790;53.022;12.968;2022-07-11T14:38:13;5.77;;;1.20;;
15383;SDS011;7790;53.022;12.968;2022-07-11T14:42:14;6.23;;;1.50;;
15383;SDS011;7790;53.022;12.968;2022-07-11T14:46:14;8.70;;;1.40;;
15383;SDS011;7790;53.022;12.968;2022-07-11T14:50:19;7.37;;;1.57;;
15383;SDS011;7790;53.022;12.968;2022-07-11T14:54:19;6.00;;;1.27;;
15383;SDS011;7790;53.022;12.968;2022-07-11T14:58:20;8.97;;;1.70;;
15383;SDS011;7790;53.022;12.968;2022-07-11T15:02:21;10.77;;;2.33;;
15383;SDS011;7790;53.022;12.968;2022-07-11T15:06:41;6.83;;;1.60;;
15383;SDS011;7790;53.022;12.968;2022-07-11T15:11:00;3.73;;;1.40;;
15383;SDS011;7790;53.022;12.968;2022-07-11T15:15:19;8.17;;;1.53;;
15383;SDS011;7790;53.022;12.968;2022-07-11T15:19:20;10.50;;;2.33;;
15383;SDS011;7790;53.022;12.968;2022-07-11T15:23:21;8.50;;;1.60;;
15383;SDS011;7790;53.022;12.968;2022-07-11T15:27:23;20.10;;;3.30;;
15383;SDS011;7790;53.022;12.968;2022-07-11T15:31:24;13.17;;;1.97;;
15383;SDS011;7790;53.022;12.968;2022-07-11T15:35:26;13.23;;;2.00;;
15383;SDS011;7790;53.022;12.968;2022-07-11T15:39:26;13.97;;;2.10;;
15383;SDS011;7790;53.022;12.968;2022-07-11T15:43:27;13.23;;;2.10;;
15383;SDS011;7790;53.022;12.968;2022-07-11T15:47:28;12.07;;;1.80;;
15383;SDS011;7790;53.022;12.968;2022-07-11T15:51:29;11.63;;;2.10;;
15383;SDS011;7790;53.022;12.968;2022-07-11T15:55:30;9.60;;;1.47;;
15383;SDS011;7790;53.022;12.968;2022-07-11T15:59:31;10.67;;;2.30;;
15383;SDS011;7790;53.022;12.968;2022-07-11T16:03:34;5.53;;;1.30;;
15383;SDS011;7790;53.022;12.968;2022-07-11T16:07:35;7.27;;;1.10;;
15383;SDS011;7790;53.022;12.968;2022-07-11T16:11:36;9.00;;;1.30;;
15383;SDS011;7790;53.022;12.968;2022-07-11T16:15:37;9.17;;;1.63;;
15383;SDS011;7790;53.022;12.968;2022-07-11T16:19:38;7.43;;;1.80;;
15383;SDS011;7790;53.022;12.968;2022-07-11T16:23:38;3.77;;;1.13;;
15383;SDS011;7790;53.022;12.968;2022-07-11T16:27:39;4.50;;;1.40;;
15383;SDS011;7790;53.022;12.968;2022-07-11T16:31:40;3.67;;;1.23;;
15383;SDS011;7790;53.022;12.968;2022-07-11T16:35:41;4.83;;;1.50;;
15383;SDS011;7790;53.022;12.968;2022-07-11T16:39:42;8.03;;;1.47;;
15383;SDS011;7790;53.022;12.968;2022-07-11T16:44:01;9.57;;;1.73;;
15383;SDS011;7790;53.022;12.968;2022-07-11T16:48:02;9.50;;;2.00;;
15383;SDS011;7790;53.022;12.968;2022-07-11T16:52:03;7.73;;;1.67;;
15383;SDS011;7790;53.022;12.968;2022-07-11T16:56:04;5.97;;;1.50;;
15383;SDS011;7790;53.022;12.968;2022-07-11T17:00:05;4.17;;;1.30;;
15383;SDS011;7790;53.022;12.968;2022-07-11T17:04:07;6.43;;;1.67;;
15383;SDS011;7790;53.022;12.968;2022-07-11T17:08:10;3.83;;;1.27;;
15383;SDS011;7790;53.022;12.968;2022-07-11T17:12:31;4.80;;;1.20;;
15383;SDS011;7790;53.022;12.968;2022-07-11T17:16:32;6.17;;;1.40;;
15383;SDS011;7790;53.022;12.968;2022-07-11T17:20:33;4.37;;;1.10;;
15383;SDS011;7790;53.022;12.968;2022-07-11T17:24:34;4.30;;;1.00;;
15383;SDS011;7790;53.022;12.968;2022-07-11T17:28:35;3.77;;;1.10;;
15383;SDS011;7790;53.022;12.968;2022-07-11T17:32:37;2.93;;;0.90;;
15383;SDS011;7790;53.022;12.968;2022-07-11T17:36:38;1.20;;;0.90;;
15383;SDS011;7790;53.022;12.968;2022-07-11T17:40:39;2.03;;;0.90;;
15383;SDS011;7790;53.022;12.968;2022-07-11T17:44:41;1.60;;;0.80;;
15383;SDS011;7790;53.022;12.968;2022-07-11T17:48:42;3.97;;;1.27;;
15383;SDS011;7790;53.022;12.968;2022-07-11T17:52:42;1.87;;;1.20;;
15383;SDS011;7790;53.022;12.968;2022-07-11T17:56:44;2.77;;;0.97;;
15383;SDS011;7790;53.022;12.968;2022-07-11T18:00:46;1.90;;;1.30;;
15383;SDS011;7790;53.022;12.968;2022-07-11T18:04:47;2.37;;;1.17;;
15383;SDS011;7790;53.022;12.968;2022-07-11T18:08:48;1.80;;;0.90;;
15383;SDS011;7790;53.022;12.968;2022-07-11T18:12:49;6.53;;;1.80;;
15383;SDS011;7790;53.022;12.968;2022-07-11T18:16:49;2.10;;;1.17;;
15383;SDS011;7790;53.022;12.968;2022-07-11T18:20:50;2.73;;;1.20;;
15383;SDS011;7790;53.022;12.968;2022-07-11T18:24:52;6.00;;;1.40;;
15383;SDS011;7790;53.022;12.968;2022-07-11T18:28:53;3.43;;;1.23;;
15383;SDS011;7790;53.022;12.968;2022-07-11T18:32:54;2.00;;;1.00;;
15383;SDS011;7790;53.022;12.968;2022-07-11T18:36:55;2.60;;;1.10;;
15383;SDS011;7790;53.022;12.968;2022-07-11T18:40:55;1.63;;;1.00;;
15383;SDS011;7790;53.022;12.968;2022-07-11T18:45:16;2.23;;;1.07;;
15383;SDS011;7790;53.022;12.968;2022-07-11T18:49:16;1.83;;;1.10;;
15383;SDS011;7790;53.022;12.968;2022-07-11T18:53:17;9.53;;;1.83;;
15383;SDS011;7790;53.022;12.968;2022-07-11T18:57:18;10.50;;;1.67;;
15383;SDS011;7790;53.022;12.968;2022-07-11T19:01:19;9.30;;;1.63;;
15383;SDS011;7790;53.022;12.968;2022-07-11T19:05:20;7.30;;;1.17;;
15383;SDS011;7790;53.022;12.968;2022-07-11T19:09:23;3.57;;;1.20;;
15383;SDS011;7790;53.022;12.968;2022-07-11T19:13:24;6.13;;;1.20;;
15383;SDS011;7790;53.022;12.968;2022-07-11T19:17:26;3.13;;;1.07;;
15383;SDS011;7790;53.022;12.968;2022-07-11T19:21:27;3.33;;;1.07;;
15383;SDS011;7790;53.022;12.968;2022-07-11T19:25:28;2.80;;;1.17;;
15383;SDS011;7790;53.022;12.968;2022-07-11T19:29:29;3.90;;;1.10;;
15383;SDS011;7790;53.022;12.968;2022-07-11T19:33:29;5.00;;;1.40;;
15383;SDS011;7790;53.022;12.968;2022-07-11T19:37:30;4.63;;;1.23;;
15383;SDS011;7790;53.022;12.968;2022-07-11T19:41:31;4.93;;;1.10;;
15383;SDS011;7790;53.022;12.968;2022-07-11T19:45:32;2.97;;;1.13;;
15383;SDS011;7790;53.022;12.968;2022-07-11T19:49:33;6.07;;;1.20;;
15383;SDS011;7790;53.022;12.968;2022-07-11T19:53:33;2.93;;;1.00;;
15383;SDS011;7790;53.022;12.968;2022-07-11T19:57:34;2.40;;;1.00;;
15383;SDS011;7790;53.022;12.968;2022-07-11T20:01:35;4.20;;;1.20;;
15383;SDS011;7790;53.022;12.968;2022-07-11T20:05:36;3.50;;;1.13;;
15383;SDS011;7790;53.022;12.968;2022-07-11T20:09:37;3.60;;;1.23;;
15383;SDS011;7790;53.022;12.968;2022-07-11T20:13:38;2.67;;;1.10;;
15383;SDS011;7790;53.022;12.968;2022-07-11T20:17:39;5.77;;;1.03;;
15383;SDS011;7790;53.022;12.968;2022-07-11T20:21:40;7.03;;;1.10;;
15383;SDS011;7790;53.022;12.968;2022-07-11T20:25:41;4.73;;;1.10;;
15383;SDS011;7790;53.022;12.968;2022-07-11T20:29:41;3.80;;;1.10;;
15383;SDS011;7790;53.022;12.968;2022-07-11T20:33:42;7.97;;;1.40;;
15383;SDS011;7790;53.022;12.968;2022-07-11T20:37:43;3.53;;;0.90;;
15383;SDS011;7790;53.022;12.968;2022-07-11T20:41:44;11.50;;;1.40;;
15383;SDS011;7790;53.022;12.968;2022-07-11T20:45:45;2.27;;;1.00;;
15383;SDS011;7790;53.022;12.968;2022-07-11T20:49:46;4.10;;;1.17;;
15383;SDS011;7790;53.022;12.968;2022-07-11T20:53:47;3.43;;;0.97;;
15383;SDS011;7790;53.022;12.968;2022-07-11T20:57:48;2.97;;;1.07;;
15383;SDS011;7790;53.022;12.968;2022-07-11T21:01:50;3.80;;;0.80;;
15383;SDS011;7790;53.022;12.968;2022-07-11T21:05:51;2.17;;;0.83;;
15383;SDS011;7790;53.022;12.968;2022-07-11T21:09:52;2.30;;;0.83;;
15383;SDS011;7790;53.022;12.968;2022-07-11T21:13:56;2.83;;;0.97;;
15383;SDS011;7790;53.022;12.968;2022-07-11T21:17:57;3.63;;;1.40;;
15383;SDS011;7790;53.022;12.968;2022-07-11T21:21:58;3.93;;;1.17;;
15383;SDS011;7790;53.022;12.968;2022-07-11T21:25:59;1.77;;;0.73;;
15383;SDS011;7790;53.022;12.968;2022-07-11T21:29:59;4.30;;;0.80;;
15383;SDS011;7790;53.022;12.968;2022-07-11T21:34:01;2.83;;;0.80;;
15383;SDS011;7790;53.022;12.968;2022-07-11T21:38:02;2.33;;;0.93;;
15383;SDS011;7790;53.022;12.968;2022-07-11T21:42:04;2.47;;;1.03;;
15383;SDS011;7790;53.022;12.968;2022-07-11T21:46:04;2.47;;;1.00;;
15383;SDS011;7790;53.022;12.968;2022-07-11T21:50:05;1.27;;;0.70;;
15383;SDS011;7790;53.022;12.968;2022-07-11T21:54:07;2.60;;;1.13;;
15383;SDS011;7790;53.022;12.968;2022-07-11T21:58:07;1.03;;;0.90;;
15383;SDS011;7790;53.022;12.968;2022-07-11T22:02:08;2.20;;;1.10;;
15383;SDS011;7790;53.022;12.968;2022-07-11T22:06:09;1.27;;;0.80;;
15383;SDS011;7790;53.022;12.968;2022-07-11T22:10:10;1.80;;;0.90;;
15383;SDS011;7790;53.022;12.968;2022-07-11T22:14:11;2.33;;;1.10;;
15383;SDS011;7790;53.022;12.968;2022-07-11T22:18:12;1.70;;;0.90;;
15383;SDS011;7790;53.022;12.968;2022-07-11T22:22:13;3.60;;;0.87;;
15383;SDS011;7790;53.022;12.968;2022-07-11T22:26:13;3.37;;;1.13;;
15383;SDS011;7790;53.022;12.968;2022-07-11T22:30:19;1.90;;;0.90;;
15383;SDS011;7790;53.022;12.968;2022-07-11T22:34:21;1.70;;;1.00;;
15383;SDS011;7790;53.022;12.968;2022-07-11T22:38:22;1.17;;;0.70;;
15383;SDS011;7790;53.022;12.968;2022-07-11T22:42:23;1.17;;;0.90;;
15383;SDS011;7790;53.022;12.968;2022-07-11T22:46:24;1.93;;;1.13;;
15383;SDS011;7790;53.022;12.968;2022-07-11T22:50:24;1.83;;;1.03;;
15383;SDS011;7790;53.022;12.968;2022-07-11T22:54:25;2.93;;;0.93;;
15383;SDS011;7790;53.022;12.968;2022-07-11T22:58:27;1.93;;;0.83;;
15383;SDS011;7790;53.022;12.968;2022-07-11T23:02:28;2.17;;;1.00;;
15383;SDS011;7790;53.022;12.968;2022-07-11T23:06:29;2.27;;;0.83;;
15383;SDS011;7790;53.022;12.968;2022-07-11T23:10:30;1.87;;;1.03;;
15383;SDS011;7790;53.022;12.968;2022-07-11T23:14:30;1.17;;;0.93;;
15383;SDS011;7790;53.022;12.968;2022-07-11T23:18:31;2.03;;;0.90;;
15383;SDS011;7790;53.022;12.968;2022-07-11T23:22:32;2.70;;;0.90;;
15383;SDS011;7790;53.022;12.968;2022-07-11T23:26:33;2.67;;;1.10;;
15383;SDS011;7790;53.022;12.968;2022-07-11T23:30:34;1.23;;;0.80;;
15383;SDS011;7790;53.022;12.968;2022-07-11T23:34:34;2.37;;;1.07;;
15383;SDS011;7790;53.022;12.968;2022-07-11T23:38:35;0.97;;;0.70;;
15383;SDS011;7790;53.022;12.968;2022-07-11T23:42:37;3.27;;;0.93;;
15383;SDS011;7790;53.022;12.968;2022-07-11T23:46:38;2.23;;;1.10;;
15383;SDS011;7790;53.022;12.968;2022-07-11T23:50:39;3.03;;;0.90;;
15383;SDS011;7790;53.022;12.968;2022-07-11T23:54:39;1.70;;;0.90;;
15383;SDS011;7790;53.022;12.968;2022-07-11T23:58:40;2.90;;;1.03;;
